Terminal Aerodrome Forecast
Issued by NWS Sioux Falls, SD

Home | Current Version | Previous Version | Text Only | Print | Product List | Glossary Off
Versions: 1 2 3 4 5 6 7 8 9 10 11 12 13 14 15

479
FTUS43 KFSD 271044 AAB
TAFFSD
TAF AMD
KFSD 271044Z 2711/2806 VRB04KT P6SM OVC028
     FM271130 VRB03KT P6SM BKN015
     FM271600 02005KT P6SM SCT020 BKN070
     FM272100 02005KT P6SM SCT070
     FM280500 08004KT P6SM FEW200=

USA.gov is the U.S. government's official web portal to all federal, state and local government web resources and services.